KFMY

Page Field Airport

Fort Myers, Florida, USA
METAR KFMY 212307Z 30007KT 10SM FEW050 31/22 A3005 RMK AO2 LTG DSNT N AND NE T03110217
Observed Flight Rules
Aug-21 @ 23:07 UTC (38 minutes ago) Visual Flight Rules
Wind Visibility Clouds
300° at 7 knots 10 miles
  • Few at 5,000' AGL
Temperatures Readings
Current 31°C / 88°F
Dewpoint 22°C / 72°F
Humidity 59%
Altimeter 30.05" Hg
Pressure 1018 hPa
Elevation 4
METAR KFMY 212307Z 30007KT 10SM FEW050 31/22 A3005 RMK AO2 LTG DSNT N AND NE T03110217
Observed Flight Rules
Aug-21 @ 23:07 UTC
(38 minutes ago)
VFR
Wind Visibility
300° at 7 knots 10 miles
Clouds
  • Few at 5,000' AGL
Temperature Dewpoint
31°C / 88°F 22°C / 72°F
Humidity Altimeter Pressure
59% 30.05" Hg 1018 hPa